sensor_id;sensor_type;location;lat;lon;timestamp;temperature;humidity
17726;DHT22;8983;53.156;17.960;2023-03-29T00:00:08;-1.00;99.90
17726;DHT22;8983;53.156;17.960;2023-03-29T00:02:40;-1.10;99.90
17726;DHT22;8983;53.156;17.960;2023-03-29T00:05:09;-1.10;99.90
17726;DHT22;8983;53.156;17.960;2023-03-29T00:07:39;-1.10;99.90
17726;DHT22;8983;53.156;17.960;2023-03-29T00:10:09;-1.20;99.90
17726;DHT22;8983;53.156;17.960;2023-03-29T00:12:38;-1.30;99.90
17726;DHT22;8983;53.156;17.960;2023-03-29T00:15:08;-1.30;99.90
17726;DHT22;8983;53.156;17.960;2023-03-29T00:17:36;-1.30;99.90
17726;DHT22;8983;53.156;17.960;2023-03-29T00:20:05;-1.40;99.90
17726;DHT22;8983;53.156;17.960;2023-03-29T00:22:36;-1.40;99.90
17726;DHT22;8983;53.156;17.960;2023-03-29T00:25:07;-1.40;99.90
17726;DHT22;8983;53.156;17.960;2023-03-29T00:27:36;-1.40;99.90
17726;DHT22;8983;53.156;17.960;2023-03-29T00:30:06;-1.50;99.90
17726;DHT22;8983;53.156;17.960;2023-03-29T00:32:34;-1.50;99.90
17726;DHT22;8983;53.156;17.960;2023-03-29T00:35:03;-1.50;99.90
17726;DHT22;8983;53.156;17.960;2023-03-29T00:37:32;-1.60;99.90
17726;DHT22;8983;53.156;17.960;2023-03-29T00:40:00;-1.60;99.90
17726;DHT22;8983;53.156;17.960;2023-03-29T00:42:34;-1.70;99.90
17726;DHT22;8983;53.156;17.960;2023-03-29T00:45:05;-1.70;99.90
17726;DHT22;8983;53.156;17.960;2023-03-29T00:47:38;-1.70;99.90
17726;DHT22;8983;53.156;17.960;2023-03-29T00:50:11;-1.70;99.90
17726;DHT22;8983;53.156;17.960;2023-03-29T00:52:43;-1.70;99.90
17726;DHT22;8983;53.156;17.960;2023-03-29T00:55:16;-1.70;99.90
17726;DHT22;8983;53.156;17.960;2023-03-29T00:57:47;-1.80;99.90
17726;DHT22;8983;53.156;17.960;2023-03-29T01:00:17;-1.70;99.90
17726;DHT22;8983;53.156;17.960;2023-03-29T01:02:49;-1.70;99.90
17726;DHT22;8983;53.156;17.960;2023-03-29T01:05:22;-1.70;99.90
17726;DHT22;8983;53.156;17.960;2023-03-29T01:07:54;-1.70;99.90
17726;DHT22;8983;53.156;17.960;2023-03-29T01:10:28;-1.70;99.90
17726;DHT22;8983;53.156;17.960;2023-03-29T01:13:02;-1.70;99.90
17726;DHT22;8983;53.156;17.960;2023-03-29T01:15:32;-1.70;99.90
17726;DHT22;8983;53.156;17.960;2023-03-29T01:18:00;-1.70;99.90
17726;DHT22;8983;53.156;17.960;2023-03-29T01:20:42;-1.80;99.90
17726;DHT22;8983;53.156;17.960;2023-03-29T01:23:31;-1.80;99.90
17726;DHT22;8983;53.156;17.960;2023-03-29T01:26:10;-1.80;99.90
17726;DHT22;8983;53.156;17.960;2023-03-29T01:28:46;-1.90;99.90
17726;DHT22;8983;53.156;17.960;2023-03-29T01:34:44;-1.90;99.90
17726;DHT22;8983;53.156;17.960;2023-03-29T01:37:17;-1.90;99.90
17726;DHT22;8983;53.156;17.960;2023-03-29T01:39:47;-2.00;99.90
17726;DHT22;8983;53.156;17.960;2023-03-29T01:42:31;-2.00;99.90
17726;DHT22;8983;53.156;17.960;2023-03-29T01:45:09;-2.00;99.90
17726;DHT22;8983;53.156;17.960;2023-03-29T01:47:47;-2.00;99.90
17726;DHT22;8983;53.156;17.960;2023-03-29T01:50:23;-2.10;99.90
17726;DHT22;8983;53.156;17.960;2023-03-29T01:52:56;-2.10;99.90
17726;DHT22;8983;53.156;17.960;2023-03-29T01:55:30;-2.10;99.90
17726;DHT22;8983;53.156;17.960;2023-03-29T01:58:00;-2.20;99.90
17726;DHT22;8983;53.156;17.960;2023-03-29T02:00:31;-2.20;99.90
17726;DHT22;8983;53.156;17.960;2023-03-29T02:03:05;-2.20;99.90
17726;DHT22;8983;53.156;17.960;2023-03-29T02:05:36;-2.20;99.90
17726;DHT22;8983;53.156;17.960;2023-03-29T02:08:07;-2.20;99.90
17726;DHT22;8983;53.156;17.960;2023-03-29T02:10:36;-2.30;99.90
17726;DHT22;8983;53.156;17.960;2023-03-29T02:13:05;-2.30;99.90
17726;DHT22;8983;53.156;17.960;2023-03-29T02:15:34;-2.30;99.90
17726;DHT22;8983;53.156;17.960;2023-03-29T02:18:03;-2.30;99.90
17726;DHT22;8983;53.156;17.960;2023-03-29T02:20:34;-2.30;99.90
17726;DHT22;8983;53.156;17.960;2023-03-29T02:23:08;-2.30;99.90
17726;DHT22;8983;53.156;17.960;2023-03-29T02:25:40;-2.30;99.90
17726;DHT22;8983;53.156;17.960;2023-03-29T02:28:09;-2.30;99.90
17726;DHT22;8983;53.156;17.960;2023-03-29T02:30:45;-2.30;99.90
17726;DHT22;8983;53.156;17.960;2023-03-29T02:33:16;-2.30;99.90
17726;DHT22;8983;53.156;17.960;2023-03-29T02:35:48;-2.40;99.90
17726;DHT22;8983;53.156;17.960;2023-03-29T02:38:19;-2.40;99.90
17726;DHT22;8983;53.156;17.960;2023-03-29T02:40:51;-2.50;99.90
17726;DHT22;8983;53.156;17.960;2023-03-29T02:43:22;-2.50;99.90
17726;DHT22;8983;53.156;17.960;2023-03-29T02:45:53;-2.50;99.90
17726;DHT22;8983;53.156;17.960;2023-03-29T02:48:25;-2.50;99.90
17726;DHT22;8983;53.156;17.960;2023-03-29T02:50:56;-2.50;99.90
17726;DHT22;8983;53.156;17.960;2023-03-29T02:53:30;-2.50;99.90
17726;DHT22;8983;53.156;17.960;2023-03-29T02:55:59;-2.50;99.90
17726;DHT22;8983;53.156;17.960;2023-03-29T02:58:29;-2.60;99.90
17726;DHT22;8983;53.156;17.960;2023-03-29T03:01:00;-2.60;99.90
17726;DHT22;8983;53.156;17.960;2023-03-29T03:03:29;-2.60;99.90
17726;DHT22;8983;53.156;17.960;2023-03-29T03:05:57;-2.60;99.90
17726;DHT22;8983;53.156;17.960;2023-03-29T03:08:28;-2.60;99.90
17726;DHT22;8983;53.156;17.960;2023-03-29T03:10:56;-2.60;99.90
17726;DHT22;8983;53.156;17.960;2023-03-29T03:13:25;-2.70;99.90
17726;DHT22;8983;53.156;17.960;2023-03-29T03:15:53;-2.70;99.90
17726;DHT22;8983;53.156;17.960;2023-03-29T03:18:23;-2.70;99.90
17726;DHT22;8983;53.156;17.960;2023-03-29T03:20:55;-2.70;99.90
17726;DHT22;8983;53.156;17.960;2023-03-29T03:23:24;-2.70;99.90
17726;DHT22;8983;53.156;17.960;2023-03-29T03:25:52;-2.70;99.90
17726;DHT22;8983;53.156;17.960;2023-03-29T03:28:21;-2.70;99.90
17726;DHT22;8983;53.156;17.960;2023-03-29T03:30:50;-2.70;99.90
17726;DHT22;8983;53.156;17.960;2023-03-29T03:33:19;-2.70;99.90
17726;DHT22;8983;53.156;17.960;2023-03-29T03:35:49;-2.70;99.90
17726;DHT22;8983;53.156;17.960;2023-03-29T03:38:17;-2.70;99.90
17726;DHT22;8983;53.156;17.960;2023-03-29T03:40:52;-2.70;99.90
17726;DHT22;8983;53.156;17.960;2023-03-29T03:43:21;-2.70;99.90
17726;DHT22;8983;53.156;17.960;2023-03-29T03:45:49;-2.70;99.90
17726;DHT22;8983;53.156;17.960;2023-03-29T03:48:17;-2.80;99.90
17726;DHT22;8983;53.156;17.960;2023-03-29T03:50:48;-2.70;99.90
17726;DHT22;8983;53.156;17.960;2023-03-29T03:53:16;-2.70;99.90
17726;DHT22;8983;53.156;17.960;2023-03-29T03:55:46;-2.70;99.90
17726;DHT22;8983;53.156;17.960;2023-03-29T03:58:15;-2.70;99.90
17726;DHT22;8983;53.156;17.960;2023-03-29T04:00:43;-2.70;99.90
17726;DHT22;8983;53.156;17.960;2023-03-29T04:03:12;-2.70;99.90
17726;DHT22;8983;53.156;17.960;2023-03-29T04:05:40;-2.70;99.90
17726;DHT22;8983;53.156;17.960;2023-03-29T04:08:10;-2.80;99.90
17726;DHT22;8983;53.156;17.960;2023-03-29T04:10:39;-2.80;99.90
17726;DHT22;8983;53.156;17.960;2023-03-29T04:13:08;-2.80;99.90
17726;DHT22;8983;53.156;17.960;2023-03-29T04:15:36;-2.80;99.90
17726;DHT22;8983;53.156;17.960;2023-03-29T04:18:05;-2.90;99.90
17726;DHT22;8983;53.156;17.960;2023-03-29T04:20:33;-2.90;99.90
17726;DHT22;8983;53.156;17.960;2023-03-29T04:23:01;-2.80;99.90
17726;DHT22;8983;53.156;17.960;2023-03-29T04:25:31;-2.80;99.90
17726;DHT22;8983;53.156;17.960;2023-03-29T04:27:59;-2.80;99.90
17726;DHT22;8983;53.156;17.960;2023-03-29T04:30:27;-2.80;99.90
17726;DHT22;8983;53.156;17.960;2023-03-29T04:32:55;-2.70;99.90
17726;DHT22;8983;53.156;17.960;2023-03-29T04:35:23;-2.70;99.90
17726;DHT22;8983;53.156;17.960;2023-03-29T04:37:51;-2.70;99.90
17726;DHT22;8983;53.156;17.960;2023-03-29T04:40:20;-2.70;99.90
17726;DHT22;8983;53.156;17.960;2023-03-29T04:42:49;-2.70;99.90
17726;DHT22;8983;53.156;17.960;2023-03-29T04:45:18;-2.70;99.90
17726;DHT22;8983;53.156;17.960;2023-03-29T04:47:46;-2.70;99.90
17726;DHT22;8983;53.156;17.960;2023-03-29T04:50:14;-2.80;99.90
17726;DHT22;8983;53.156;17.960;2023-03-29T04:52:42;-2.80;99.90
17726;DHT22;8983;53.156;17.960;2023-03-29T04:55:11;-2.80;99.90
17726;DHT22;8983;53.156;17.960;2023-03-29T04:57:39;-2.80;99.90
17726;DHT22;8983;53.156;17.960;2023-03-29T05:00:10;-2.80;99.90
17726;DHT22;8983;53.156;17.960;2023-03-29T05:02:41;-2.80;99.90
17726;DHT22;8983;53.156;17.960;2023-03-29T05:05:10;-2.80;99.90
17726;DHT22;8983;53.156;17.960;2023-03-29T05:07:38;-2.80;99.90
17726;DHT22;8983;53.156;17.960;2023-03-29T05:10:08;-2.80;99.90
17726;DHT22;8983;53.156;17.960;2023-03-29T05:12:36;-2.70;99.90
17726;DHT22;8983;53.156;17.960;2023-03-29T05:15:05;-2.70;99.90
17726;DHT22;8983;53.156;17.960;2023-03-29T05:17:35;-2.70;99.90
17726;DHT22;8983;53.156;17.960;2023-03-29T05:20:04;-2.60;99.90
17726;DHT22;8983;53.156;17.960;2023-03-29T05:22:35;-2.60;99.90
17726;DHT22;8983;53.156;17.960;2023-03-29T05:25:04;-2.50;99.90
17726;DHT22;8983;53.156;17.960;2023-03-29T05:27:33;-2.50;99.90
17726;DHT22;8983;53.156;17.960;2023-03-29T05:30:02;-2.40;99.90
17726;DHT22;8983;53.156;17.960;2023-03-29T05:32:30;-2.40;99.90
17726;DHT22;8983;53.156;17.960;2023-03-29T05:34:59;-2.40;99.90
17726;DHT22;8983;53.156;17.960;2023-03-29T05:37:28;-2.30;99.90
17726;DHT22;8983;53.156;17.960;2023-03-29T05:39:57;-2.30;99.90
17726;DHT22;8983;53.156;17.960;2023-03-29T05:42:32;-2.30;99.90
17726;DHT22;8983;53.156;17.960;2023-03-29T05:45:00;-2.20;99.90
17726;DHT22;8983;53.156;17.960;2023-03-29T05:47:28;-2.20;99.90
17726;DHT22;8983;53.156;17.960;2023-03-29T05:49:56;-2.10;99.90
17726;DHT22;8983;53.156;17.960;2023-03-29T05:52:25;-2.10;99.90
17726;DHT22;8983;53.156;17.960;2023-03-29T05:54:53;-2.00;99.90
17726;DHT22;8983;53.156;17.960;2023-03-29T05:57:22;-2.00;99.90
17726;DHT22;8983;53.156;17.960;2023-03-29T05:59:51;-1.90;99.90
17726;DHT22;8983;53.156;17.960;2023-03-29T06:02:19;-1.80;99.90
17726;DHT22;8983;53.156;17.960;2023-03-29T06:04:47;-1.80;99.90
17726;DHT22;8983;53.156;17.960;2023-03-29T06:07:15;-1.70;99.90
17726;DHT22;8983;53.156;17.960;2023-03-29T06:09:45;-1.70;99.90
17726;DHT22;8983;53.156;17.960;2023-03-29T06:12:13;-1.60;99.90
17726;DHT22;8983;53.156;17.960;2023-03-29T06:14:41;-1.60;99.90
17726;DHT22;8983;53.156;17.960;2023-03-29T06:17:09;-1.50;99.90
17726;DHT22;8983;53.156;17.960;2023-03-29T06:19:38;-1.50;99.90
17726;DHT22;8983;53.156;17.960;2023-03-29T06:22:06;-1.40;99.90
17726;DHT22;8983;53.156;17.960;2023-03-29T06:24:34;-1.40;99.90
17726;DHT22;8983;53.156;17.960;2023-03-29T06:27:03;-1.30;99.90
17726;DHT22;8983;53.156;17.960;2023-03-29T06:29:31;-1.30;99.90
17726;DHT22;8983;53.156;17.960;2023-03-29T06:31:59;-1.20;99.90
17726;DHT22;8983;53.156;17.960;2023-03-29T06:34:27;-1.20;99.90
17726;DHT22;8983;53.156;17.960;2023-03-29T06:36:56;-1.10;99.90
17726;DHT22;8983;53.156;17.960;2023-03-29T06:39:24;-1.10;99.90
17726;DHT22;8983;53.156;17.960;2023-03-29T06:41:52;-1.00;99.90
17726;DHT22;8983;53.156;17.960;2023-03-29T06:44:22;-1.00;99.90
17726;DHT22;8983;53.156;17.960;2023-03-29T06:46:51;-0.90;99.90
17726;DHT22;8983;53.156;17.960;2023-03-29T06:49:20;-0.80;99.90
17726;DHT22;8983;53.156;17.960;2023-03-29T06:51:48;-0.80;99.90
17726;DHT22;8983;53.156;17.960;2023-03-29T06:54:16;-0.70;99.90
17726;DHT22;8983;53.156;17.960;2023-03-29T06:56:44;-0.60;99.90
17726;DHT22;8983;53.156;17.960;2023-03-29T06:59:13;-0.60;99.90
17726;DHT22;8983;53.156;17.960;2023-03-29T07:01:42;-0.50;99.90
17726;DHT22;8983;53.156;17.960;2023-03-29T07:04:10;-0.50;99.90
17726;DHT22;8983;53.156;17.960;2023-03-29T07:06:39;-0.40;99.90
17726;DHT22;8983;53.156;17.960;2023-03-29T07:09:14;-0.30;99.90
17726;DHT22;8983;53.156;17.960;2023-03-29T07:11:45;-0.30;99.90
17726;DHT22;8983;53.156;17.960;2023-03-29T07:14:13;-0.20;99.90
17726;DHT22;8983;53.156;17.960;2023-03-29T07:19:14;0.00;99.90
17726;DHT22;8983;53.156;17.960;2023-03-29T07:21:42;0.10;99.90
17726;DHT22;8983;53.156;17.960;2023-03-29T07:24:10;0.20;99.90
17726;DHT22;8983;53.156;17.960;2023-03-29T07:26:38;0.30;99.90
17726;DHT22;8983;53.156;17.960;2023-03-29T07:29:26;0.50;99.90
17726;DHT22;8983;53.156;17.960;2023-03-29T07:31:56;0.60;99.90
17726;DHT22;8983;53.156;17.960;2023-03-29T07:34:24;0.70;99.90
17726;DHT22;8983;53.156;17.960;2023-03-29T07:36:52;0.90;99.90
17726;DHT22;8983;53.156;17.960;2023-03-29T07:39:21;0.90;99.90
17726;DHT22;8983;53.156;17.960;2023-03-29T07:41:49;1.00;99.90
17726;DHT22;8983;53.156;17.960;2023-03-29T07:44:17;1.10;99.90
17726;DHT22;8983;53.156;17.960;2023-03-29T07:46:47;1.10;99.90
17726;DHT22;8983;53.156;17.960;2023-03-29T07:49:16;1.10;99.90
17726;DHT22;8983;53.156;17.960;2023-03-29T07:51:47;1.30;99.90
17726;DHT22;8983;53.156;17.960;2023-03-29T07:54:15;1.40;99.90
17726;DHT22;8983;53.156;17.960;2023-03-29T07:56:44;1.50;99.90
17726;DHT22;8983;53.156;17.960;2023-03-29T07:59:13;1.60;99.90
17726;DHT22;8983;53.156;17.960;2023-03-29T08:01:42;1.70;99.90
17726;DHT22;8983;53.156;17.960;2023-03-29T08:04:10;1.80;99.90
17726;DHT22;8983;53.156;17.960;2023-03-29T08:06:39;1.90;99.90
17726;DHT22;8983;53.156;17.960;2023-03-29T08:09:08;1.90;99.90
17726;DHT22;8983;53.156;17.960;2023-03-29T08:11:36;1.90;99.90
17726;DHT22;8983;53.156;17.960;2023-03-29T08:14:05;2.00;99.90
17726;DHT22;8983;53.156;17.960;2023-03-29T08:17:28;2.00;99.90
17726;DHT22;8983;53.156;17.960;2023-03-29T08:19:56;2.10;99.90
17726;DHT22;8983;53.156;17.960;2023-03-29T08:22:24;2.10;99.90
17726;DHT22;8983;53.156;17.960;2023-03-29T08:24:52;2.20;99.90
17726;DHT22;8983;53.156;17.960;2023-03-29T08:27:20;2.30;99.90
17726;DHT22;8983;53.156;17.960;2023-03-29T08:29:48;2.40;99.90
17726;DHT22;8983;53.156;17.960;2023-03-29T08:32:16;2.50;99.90
17726;DHT22;8983;53.156;17.960;2023-03-29T08:34:46;2.60;99.90
17726;DHT22;8983;53.156;17.960;2023-03-29T08:37:14;2.60;99.90
17726;DHT22;8983;53.156;17.960;2023-03-29T08:39:42;2.60;99.90
17726;DHT22;8983;53.156;17.960;2023-03-29T08:42:28;2.60;99.90
17726;DHT22;8983;53.156;17.960;2023-03-29T08:45:04;2.70;99.90
17726;DHT22;8983;53.156;17.960;2023-03-29T08:47:41;2.80;99.90
17726;DHT22;8983;53.156;17.960;2023-03-29T08:50:14;2.80;99.90
17726;DHT22;8983;53.156;17.960;2023-03-29T08:52:47;3.00;99.90
17726;DHT22;8983;53.156;17.960;2023-03-29T08:55:21;3.10;99.90
17726;DHT22;8983;53.156;17.960;2023-03-29T08:57:53;3.10;99.90
17726;DHT22;8983;53.156;17.960;2023-03-29T09:00:28;3.20;99.90
17726;DHT22;8983;53.156;17.960;2023-03-29T09:02:58;3.20;99.90
17726;DHT22;8983;53.156;17.960;2023-03-29T09:05:32;3.30;99.90
17726;DHT22;8983;53.156;17.960;2023-03-29T09:08:02;3.50;99.90
17726;DHT22;8983;53.156;17.960;2023-03-29T09:10:35;3.60;99.90
17726;DHT22;8983;53.156;17.960;2023-03-29T09:13:17;3.60;99.90
17726;DHT22;8983;53.156;17.960;2023-03-29T09:15:52;3.60;99.90
17726;DHT22;8983;53.156;17.960;2023-03-29T09:18:26;3.70;99.90
17726;DHT22;8983;53.156;17.960;2023-03-29T09:21:00;3.80;99.90
17726;DHT22;8983;53.156;17.960;2023-03-29T09:24:12;3.90;99.90
17726;DHT22;8983;53.156;17.960;2023-03-29T09:26:47;3.90;99.90
17726;DHT22;8983;53.156;17.960;2023-03-29T09:29:38;3.90;99.90
17726;DHT22;8983;53.156;17.960;2023-03-29T09:32:15;4.00;99.90
17726;DHT22;8983;53.156;17.960;2023-03-29T09:34:48;4.10;99.90
17726;DHT22;8983;53.156;17.960;2023-03-29T09:37:26;4.20;99.90
17726;DHT22;8983;53.156;17.960;2023-03-29T09:39:55;4.30;99.90
17726;DHT22;8983;53.156;17.960;2023-03-29T09:42:25;4.40;99.90
17726;DHT22;8983;53.156;17.960;2023-03-29T09:44:58;4.60;99.90
17726;DHT22;8983;53.156;17.960;2023-03-29T09:47:35;4.80;99.90
17726;DHT22;8983;53.156;17.960;2023-03-29T09:50:09;5.00;99.90
17726;DHT22;8983;53.156;17.960;2023-03-29T09:52:57;5.30;99.90
17726;DHT22;8983;53.156;17.960;2023-03-29T09:55:27;5.50;99.90
17726;DHT22;8983;53.156;17.960;2023-03-29T09:57:58;5.80;99.90
17726;DHT22;8983;53.156;17.960;2023-03-29T10:00:27;6.10;99.90
17726;DHT22;8983;53.156;17.960;2023-03-29T10:02:56;6.40;99.90
17726;DHT22;8983;53.156;17.960;2023-03-29T10:05:29;6.60;99.40
17726;DHT22;8983;53.156;17.960;2023-03-29T10:08:00;6.90;99.40
17726;DHT22;8983;53.156;17.960;2023-03-29T10:10:30;7.30;98.00
17726;DHT22;8983;53.156;17.960;2023-03-29T10:13:03;7.50;97.60
17726;DHT22;8983;53.156;17.960;2023-03-29T10:15:32;7.60;97.20
17726;DHT22;8983;53.156;17.960;2023-03-29T10:18:01;7.80;96.60
17726;DHT22;8983;53.156;17.960;2023-03-29T10:20:33;8.00;95.90
17726;DHT22;8983;53.156;17.960;2023-03-29T10:23:06;7.90;95.70
17726;DHT22;8983;53.156;17.960;2023-03-29T10:25:37;8.20;95.20
17726;DHT22;8983;53.156;17.960;2023-03-29T10:28:12;8.30;94.40
17726;DHT22;8983;53.156;17.960;2023-03-29T10:30:45;8.50;93.60
17726;DHT22;8983;53.156;17.960;2023-03-29T10:33:20;8.70;92.90
17726;DHT22;8983;53.156;17.960;2023-03-29T10:35:49;8.70;92.60
17726;DHT22;8983;53.156;17.960;2023-03-29T10:38:22;8.80;92.10
17726;DHT22;8983;53.156;17.960;2023-03-29T10:40:52;9.10;91.70
17726;DHT22;8983;53.156;17.960;2023-03-29T10:43:22;9.20;91.00
17726;DHT22;8983;53.156;17.960;2023-03-29T10:45:55;9.30;91.00
17726;DHT22;8983;53.156;17.960;2023-03-29T10:48:27;9.30;90.90
17726;DHT22;8983;53.156;17.960;2023-03-29T10:50:58;9.40;90.60
17726;DHT22;8983;53.156;17.960;2023-03-29T10:53:30;9.50;90.40
17726;DHT22;8983;53.156;17.960;2023-03-29T10:56:08;9.70;90.40
17726;DHT22;8983;53.156;17.960;2023-03-29T10:58:47;9.80;89.30
17726;DHT22;8983;53.156;17.960;2023-03-29T11:01:19;10.00;86.60
17726;DHT22;8983;53.156;17.960;2023-03-29T11:04:03;10.20;84.50
17726;DHT22;8983;53.156;17.960;2023-03-29T11:06:36;10.30;83.30
17726;DHT22;8983;53.156;17.960;2023-03-29T11:09:19;10.40;83.20
17726;DHT22;8983;53.156;17.960;2023-03-29T11:12:00;10.50;83.40
17726;DHT22;8983;53.156;17.960;2023-03-29T11:14:49;10.60;82.90
17726;DHT22;8983;53.156;17.960;2023-03-29T11:17:30;10.50;81.40
17726;DHT22;8983;53.156;17.960;2023-03-29T11:20:20;10.40;81.20
17726;DHT22;8983;53.156;17.960;2023-03-29T11:22:58;10.50;80.90
17726;DHT22;8983;53.156;17.960;2023-03-29T11:25:38;10.70;81.00
17726;DHT22;8983;53.156;17.960;2023-03-29T11:28:11;10.90;79.00
17726;DHT22;8983;53.156;17.960;2023-03-29T11:30:44;11.00;78.60
17726;DHT22;8983;53.156;17.960;2023-03-29T11:33:35;11.20;79.50
17726;DHT22;8983;53.156;17.960;2023-03-29T11:36:08;11.50;79.40
17726;DHT22;8983;53.156;17.960;2023-03-29T11:38:44;11.30;77.30
17726;DHT22;8983;53.156;17.960;2023-03-29T11:41:17;11.10;77.30
17726;DHT22;8983;53.156;17.960;2023-03-29T11:43:47;11.10;77.50
17726;DHT22;8983;53.156;17.960;2023-03-29T11:46:19;11.30;77.50
17726;DHT22;8983;53.156;17.960;2023-03-29T11:48:51;11.60;77.60
17726;DHT22;8983;53.156;17.960;2023-03-29T11:51:22;11.90;77.30
17726;DHT22;8983;53.156;17.960;2023-03-29T11:53:58;12.30;76.70
17726;DHT22;8983;53.156;17.960;2023-03-29T11:56:32;12.50;76.30
17726;DHT22;8983;53.156;17.960;2023-03-29T11:59:08;12.70;75.20
17726;DHT22;8983;53.156;17.960;2023-03-29T12:01:42;12.70;73.70
17726;DHT22;8983;53.156;17.960;2023-03-29T12:04:17;12.60;73.70
17726;DHT22;8983;53.156;17.960;2023-03-29T12:06:54;12.50;72.70
17726;DHT22;8983;53.156;17.960;2023-03-29T12:09:29;12.40;71.10
17726;DHT22;8983;53.156;17.960;2023-03-29T12:12:05;12.40;71.20
17726;DHT22;8983;53.156;17.960;2023-03-29T12:14:48;12.40;71.30
17726;DHT22;8983;53.156;17.960;2023-03-29T12:17:23;12.30;71.40
17726;DHT22;8983;53.156;17.960;2023-03-29T12:20:01;12.00;71.30
17726;DHT22;8983;53.156;17.960;2023-03-29T12:22:31;11.90;71.90
17726;DHT22;8983;53.156;17.960;2023-03-29T12:25:00;11.80;71.90
17726;DHT22;8983;53.156;17.960;2023-03-29T12:27:35;11.70;71.50
17726;DHT22;8983;53.156;17.960;2023-03-29T12:30:31;11.60;71.50
17726;DHT22;8983;53.156;17.960;2023-03-29T12:33:15;11.60;71.30
17726;DHT22;8983;53.156;17.960;2023-03-29T12:35:53;11.70;71.00
17726;DHT22;8983;53.156;17.960;2023-03-29T12:38:25;12.00;71.40
17726;DHT22;8983;53.156;17.960;2023-03-29T12:40:58;12.30;70.90
17726;DHT22;8983;53.156;17.960;2023-03-29T12:43:30;12.30;70.00
17726;DHT22;8983;53.156;17.960;2023-03-29T12:46:05;12.10;70.10
17726;DHT22;8983;53.156;17.960;2023-03-29T12:48:36;12.00;71.20
17726;DHT22;8983;53.156;17.960;2023-03-29T12:51:10;11.80;69.80
17726;DHT22;8983;53.156;17.960;2023-03-29T12:53:40;11.60;70.40
17726;DHT22;8983;53.156;17.960;2023-03-29T12:56:13;11.50;70.10
17726;DHT22;8983;53.156;17.960;2023-03-29T12:59:05;11.50;70.50
17726;DHT22;8983;53.156;17.960;2023-03-29T13:01:35;11.60;70.50
17726;DHT22;8983;53.156;17.960;2023-03-29T13:04:17;11.80;70.70
17726;DHT22;8983;53.156;17.960;2023-03-29T13:06:57;12.10;70.20
17726;DHT22;8983;53.156;17.960;2023-03-29T13:09:31;12.30;69.80
17726;DHT22;8983;53.156;17.960;2023-03-29T13:12:06;12.40;69.30
17726;DHT22;8983;53.156;17.960;2023-03-29T13:14:40;12.40;68.70
17726;DHT22;8983;53.156;17.960;2023-03-29T13:17:19;12.50;68.70
17726;DHT22;8983;53.156;17.960;2023-03-29T13:19:56;12.50;68.10
17726;DHT22;8983;53.156;17.960;2023-03-29T13:22:37;12.40;68.20
17726;DHT22;8983;53.156;17.960;2023-03-29T13:25:19;12.30;69.00
17726;DHT22;8983;53.156;17.960;2023-03-29T13:27:58;12.20;69.00
17726;DHT22;8983;53.156;17.960;2023-03-29T13:30:44;12.10;69.20
17726;DHT22;8983;53.156;17.960;2023-03-29T13:33:23;11.90;69.50
17726;DHT22;8983;53.156;17.960;2023-03-29T13:36:02;11.70;69.60
17726;DHT22;8983;53.156;17.960;2023-03-29T13:38:43;11.60;69.90
17726;DHT22;8983;53.156;17.960;2023-03-29T13:41:29;11.50;70.00
17726;DHT22;8983;53.156;17.960;2023-03-29T13:43:58;11.40;69.70
17726;DHT22;8983;53.156;17.960;2023-03-29T13:46:38;11.10;69.70
17726;DHT22;8983;53.156;17.960;2023-03-29T13:49:14;10.80;70.10
17726;DHT22;8983;53.156;17.960;2023-03-29T13:52:00;10.80;70.30
17726;DHT22;8983;53.156;17.960;2023-03-29T13:54:32;10.70;70.60
17726;DHT22;8983;53.156;17.960;2023-03-29T13:57:07;10.60;70.90
17726;DHT22;8983;53.156;17.960;2023-03-29T13:59:46;10.60;71.10
17726;DHT22;8983;53.156;17.960;2023-03-29T14:02:21;10.50;71.10
17726;DHT22;8983;53.156;17.960;2023-03-29T14:04:52;10.40;71.20
17726;DHT22;8983;53.156;17.960;2023-03-29T14:07:22;10.40;71.40
17726;DHT22;8983;53.156;17.960;2023-03-29T14:09:52;10.30;71.60
17726;DHT22;8983;53.156;17.960;2023-03-29T14:12:21;10.30;71.80
17726;DHT22;8983;53.156;17.960;2023-03-29T14:14:51;10.30;72.10
17726;DHT22;8983;53.156;17.960;2023-03-29T14:17:26;10.40;72.40
17726;DHT22;8983;53.156;17.960;2023-03-29T14:19:58;10.40;72.40
17726;DHT22;8983;53.156;17.960;2023-03-29T14:22:29;10.40;72.60
17726;DHT22;8983;53.156;17.960;2023-03-29T14:25:04;10.40;72.50
17726;DHT22;8983;53.156;17.960;2023-03-29T14:27:35;10.30;72.50
17726;DHT22;8983;53.156;17.960;2023-03-29T14:30:20;10.20;72.50
17726;DHT22;8983;53.156;17.960;2023-03-29T14:32:50;10.30;72.70
17726;DHT22;8983;53.156;17.960;2023-03-29T14:35:20;10.30;72.90
17726;DHT22;8983;53.156;17.960;2023-03-29T14:37:54;10.40;72.90
17726;DHT22;8983;53.156;17.960;2023-03-29T14:40:22;10.40;72.50
17726;DHT22;8983;53.156;17.960;2023-03-29T14:42:50;10.40;72.30
17726;DHT22;8983;53.156;17.960;2023-03-29T14:45:20;10.50;72.20
17726;DHT22;8983;53.156;17.960;2023-03-29T14:47:51;10.50;71.90
17726;DHT22;8983;53.156;17.960;2023-03-29T14:50:22;10.50;71.90
17726;DHT22;8983;53.156;17.960;2023-03-29T14:52:53;10.40;71.90
17726;DHT22;8983;53.156;17.960;2023-03-29T14:55:23;10.40;72.20
17726;DHT22;8983;53.156;17.960;2023-03-29T14:57:53;10.40;72.20
17726;DHT22;8983;53.156;17.960;2023-03-29T15:00:24;10.40;72.40
17726;DHT22;8983;53.156;17.960;2023-03-29T15:02:57;10.40;72.70
17726;DHT22;8983;53.156;17.960;2023-03-29T15:05:31;10.50;72.90
17726;DHT22;8983;53.156;17.960;2023-03-29T15:08:00;10.50;72.80
17726;DHT22;8983;53.156;17.960;2023-03-29T15:10:30;10.50;72.80
17726;DHT22;8983;53.156;17.960;2023-03-29T15:13:01;10.70;72.80
17726;DHT22;8983;53.156;17.960;2023-03-29T15:15:30;10.80;72.50
17726;DHT22;8983;53.156;17.960;2023-03-29T15:18:02;10.80;72.20
17726;DHT22;8983;53.156;17.960;2023-03-29T15:20:33;10.80;72.30
17726;DHT22;8983;53.156;17.960;2023-03-29T15:23:06;10.70;72.70
17726;DHT22;8983;53.156;17.960;2023-03-29T15:25:36;10.70;73.10
17726;DHT22;8983;53.156;17.960;2023-03-29T15:28:04;10.70;73.40
17726;DHT22;8983;53.156;17.960;2023-03-29T15:30:34;10.60;73.60
17726;DHT22;8983;53.156;17.960;2023-03-29T15:33:15;10.60;74.10
17726;DHT22;8983;53.156;17.960;2023-03-29T15:35:49;10.70;74.10
17726;DHT22;8983;53.156;17.960;2023-03-29T15:38:17;10.60;74.00
17726;DHT22;8983;53.156;17.960;2023-03-29T15:40:53;10.60;74.30
17726;DHT22;8983;53.156;17.960;2023-03-29T15:43:21;10.40;74.50
17726;DHT22;8983;53.156;17.960;2023-03-29T15:45:50;10.50;75.00
17726;DHT22;8983;53.156;17.960;2023-03-29T15:48:23;10.50;75.20
17726;DHT22;8983;53.156;17.960;2023-03-29T15:50:51;10.50;75.30
17726;DHT22;8983;53.156;17.960;2023-03-29T15:53:20;10.60;75.50
17726;DHT22;8983;53.156;17.960;2023-03-29T15:55:51;10.70;75.50
17726;DHT22;8983;53.156;17.960;2023-03-29T15:58:22;10.70;75.50
17726;DHT22;8983;53.156;17.960;2023-03-29T16:00:53;10.70;75.80
17726;DHT22;8983;53.156;17.960;2023-03-29T16:03:26;10.60;76.10
17726;DHT22;8983;53.156;17.960;2023-03-29T16:05:54;10.60;76.50
17726;DHT22;8983;53.156;17.960;2023-03-29T16:08:23;10.40;76.70
17726;DHT22;8983;53.156;17.960;2023-03-29T16:10:51;10.40;77.10